createdAt,value
2018-03-29T00:00:00.336Z,25.53
2018-03-29T00:02:28.231Z,32.07
2018-03-29T00:04:56.130Z,28.23
2018-03-29T00:07:23.981Z,31.40
2018-03-29T00:09:51.856Z,31.70
2018-03-29T00:12:19.696Z,32.27
2018-03-29T00:14:47.549Z,33.00
2018-03-29T00:17:15.452Z,27.97
2018-03-29T00:19:43.336Z,34.00
2018-03-29T00:22:11.197Z,33.87
2018-03-29T00:24:39.083Z,31.80
2018-03-29T00:27:07.022Z,36.03
2018-03-29T00:29:34.924Z,31.23
2018-03-29T00:32:02.866Z,32.40
2018-03-29T00:34:30.750Z,28.50
2018-03-29T00:36:58.622Z,33.37
2018-03-29T00:39:26.539Z,36.87
2018-03-29T00:41:54.603Z,34.43
2018-03-29T00:44:22.598Z,32.57
2018-03-29T00:46:50.640Z,36.20
2018-03-29T00:49:18.493Z,33.93
2018-03-29T00:51:46.737Z,34.30
2018-03-29T00:54:14.648Z,31.40
2018-03-29T00:56:42.496Z,34.43
2018-03-29T00:59:10.369Z,30.97
2018-03-29T01:01:38.234Z,29.50
2018-03-29T01:04:06.476Z,31.70
2018-03-29T01:06:34.341Z,31.13
2018-03-29T01:09:02.241Z,30.53
2018-03-29T01:11:30.152Z,27.63
2018-03-29T01:13:58.072Z,32.27
2018-03-29T01:16:26.045Z,31.60
2018-03-29T01:18:53.939Z,32.93
2018-03-29T01:21:21.813Z,32.53
2018-03-29T01:23:49.684Z,34.07
2018-03-29T01:26:17.531Z,30.47
2018-03-29T01:28:45.473Z,31.80
2018-03-29T01:31:13.330Z,30.57
2018-03-29T01:33:41.200Z,33.43
2018-03-29T01:36:09.068Z,29.30
2018-03-29T01:38:36.903Z,26.20
2018-03-29T01:41:04.812Z,27.57
2018-03-29T01:43:32.680Z,31.93
2018-03-29T01:46:00.540Z,32.80
2018-03-29T01:48:28.476Z,33.20
2018-03-29T01:50:56.347Z,33.27
2018-03-29T01:53:24.239Z,31.13
2018-03-29T01:55:52.128Z,30.07
2018-03-29T01:58:20.084Z,34.80
2018-03-29T02:00:47.948Z,36.80
2018-03-29T02:03:15.808Z,35.17
2018-03-29T02:05:43.727Z,38.53
2018-03-29T02:08:11.597Z,35.03
2018-03-29T02:10:39.921Z,32.97
2018-03-29T02:13:07.764Z,32.93
2018-03-29T02:15:36.420Z,31.70
2018-03-29T02:18:04.279Z,35.97
2018-03-29T02:20:32.188Z,34.60
2018-03-29T02:23:00.093Z,38.07
2018-03-29T02:25:27.945Z,33.00
2018-03-29T02:27:55.836Z,38.77
2018-03-29T02:30:23.685Z,39.27
2018-03-29T02:32:51.606Z,39.90
2018-03-29T02:35:19.493Z,99.90
2018-03-29T02:37:47.375Z,41.90
2018-03-29T02:40:15.236Z,76.07
2018-03-29T02:42:43.143Z,42.90
2018-03-29T02:45:11.006Z,44.60
2018-03-29T02:47:38.861Z,42.80
2018-03-29T02:50:06.781Z,44.47
2018-03-29T02:52:34.653Z,42.97
2018-03-29T02:55:02.510Z,44.17
2018-03-29T02:57:30.387Z,42.87
2018-03-29T02:59:58.241Z,44.40
2018-03-29T03:02:26.088Z,43.67
2018-03-29T03:04:53.982Z,43.03
2018-03-29T03:07:21.911Z,43.10
2018-03-29T03:09:49.745Z,42.23
2018-03-29T03:12:17.689Z,42.97
2018-03-29T03:14:45.546Z,42.80
2018-03-29T03:17:13.440Z,42.20
2018-03-29T03:19:41.310Z,44.60
2018-03-29T03:22:09.181Z,44.77
2018-03-29T03:24:37.080Z,41.90
2018-03-29T03:27:04.924Z,43.60
2018-03-29T03:29:32.793Z,45.57
2018-03-29T03:32:00.661Z,43.07
2018-03-29T03:34:28.550Z,41.60
2018-03-29T03:36:56.380Z,40.37
2018-03-29T03:39:24.223Z,40.50
2018-03-29T03:41:52.536Z,36.07
2018-03-29T03:44:20.388Z,36.53
2018-03-29T03:46:48.285Z,29.97
2018-03-29T03:49:22.303Z,31.60
2018-03-29T03:51:50.195Z,31.83
2018-03-29T03:54:18.029Z,28.67
2018-03-29T03:56:45.900Z,27.47
2018-03-29T03:59:13.748Z,26.80
2018-03-29T04:01:41.599Z,26.00
2018-03-29T04:04:09.518Z,24.07
2018-03-29T04:06:37.418Z,22.60
2018-03-29T04:09:05.263Z,19.63
2018-03-29T04:11:33.134Z,20.17
2018-03-29T04:14:00.989Z,18.80
2018-03-29T04:16:28.866Z,17.07
2018-03-29T04:18:56.766Z,17.17
2018-03-29T04:21:24.664Z,15.77
2018-03-29T04:23:52.510Z,15.00
2018-03-29T04:26:20.391Z,13.27
2018-03-29T04:28:48.284Z,14.00
2018-03-29T04:31:16.139Z,12.17
2018-03-29T04:33:44.033Z,11.63
2018-03-29T04:36:11.916Z,12.17
2018-03-29T04:38:39.779Z,12.47
2018-03-29T04:41:07.734Z,13.00
2018-03-29T04:43:35.579Z,12.57
2018-03-29T04:46:03.432Z,14.00
2018-03-29T04:48:31.315Z,10.90
2018-03-29T04:50:59.209Z,13.00
2018-03-29T04:53:27.089Z,13.30
2018-03-29T04:55:54.956Z,13.10
2018-03-29T04:58:22.793Z,13.00
2018-03-29T05:00:50.681Z,13.23
2018-03-29T05:03:18.849Z,12.80
2018-03-29T05:05:46.708Z,12.53
2018-03-29T05:08:14.610Z,11.80
2018-03-29T05:10:42.517Z,10.83
2018-03-29T05:13:10.384Z,11.70
2018-03-29T05:15:39.229Z,11.10
2018-03-29T05:18:07.135Z,11.60
2018-03-29T05:20:35.053Z,13.23
2018-03-29T05:23:02.941Z,11.93
2018-03-29T05:25:34.810Z,11.20
2018-03-29T05:28:08.535Z,10.20
2018-03-29T05:30:36.466Z,9.40
2018-03-29T05:33:04.342Z,9.70
2018-03-29T05:35:32.187Z,8.50
2018-03-29T05:38:00.107Z,8.50
2018-03-29T05:40:28.009Z,6.97
2018-03-29T05:42:55.995Z,7.10
2018-03-29T05:45:23.883Z,5.23
2018-03-29T05:47:51.725Z,5.60
2018-03-29T05:50:19.639Z,5.17
2018-03-29T05:52:48.009Z,5.27
2018-03-29T05:55:15.853Z,4.50
2018-03-29T05:57:44.750Z,5.17
2018-03-29T06:00:12.673Z,5.13
2018-03-29T06:02:40.517Z,5.33
2018-03-29T06:05:09.341Z,5.60
2018-03-29T06:07:37.251Z,5.63
2018-03-29T06:10:05.109Z,6.67
2018-03-29T06:12:33.447Z,6.37
2018-03-29T06:15:07.339Z,6.30
2018-03-29T06:17:35.275Z,5.57
2018-03-29T06:20:03.253Z,5.10
2018-03-29T06:22:31.423Z,5.70
2018-03-29T06:24:59.280Z,4.80
2018-03-29T06:27:27.267Z,4.80
2018-03-29T06:29:55.160Z,5.07
2018-03-29T06:32:23.035Z,5.00
2018-03-29T06:34:51.383Z,4.13
2018-03-29T06:37:19.291Z,4.90
2018-03-29T06:39:47.152Z,4.30
2018-03-29T06:42:15.133Z,4.57
2018-03-29T06:44:43.111Z,3.83
2018-03-29T06:47:11.059Z,3.57
2018-03-29T06:49:39.039Z,4.00
2018-03-29T06:52:06.944Z,3.13
2018-03-29T06:54:34.787Z,4.13
2018-03-29T06:57:02.642Z,4.40
2018-03-29T06:59:30.530Z,4.30
2018-03-29T07:01:58.371Z,4.20
2018-03-29T07:04:26.321Z,3.33
2018-03-29T07:06:54.259Z,4.37
2018-03-29T07:09:22.130Z,4.13
2018-03-29T07:11:50.076Z,3.57
2018-03-29T07:14:17.997Z,3.70
2018-03-29T07:16:45.877Z,3.60
2018-03-29T07:19:13.737Z,3.70
2018-03-29T07:21:42.413Z,3.70
2018-03-29T07:24:10.243Z,3.30
2018-03-29T07:26:38.293Z,3.20
2018-03-29T07:29:06.201Z,3.20
2018-03-29T07:31:34.130Z,3.07
2018-03-29T07:34:02.031Z,3.40
2018-03-29T07:36:30.050Z,3.57
2018-03-29T07:38:59.409Z,3.60
2018-03-29T07:41:27.298Z,3.60
2018-03-29T07:43:55.267Z,3.07
2018-03-29T07:46:23.110Z,3.90
2018-03-29T07:48:51.004Z,3.93
2018-03-29T07:51:19.877Z,3.10
2018-03-29T07:53:48.447Z,3.20
2018-03-29T07:56:16.415Z,2.90
2018-03-29T07:58:44.300Z,2.80
2018-03-29T08:01:12.266Z,3.20
2018-03-29T08:03:41.184Z,3.50
2018-03-29T08:06:09.218Z,2.57
2018-03-29T08:08:37.032Z,2.73
2018-03-29T08:11:04.911Z,3.00
2018-03-29T08:13:32.789Z,2.53
2018-03-29T08:16:01.064Z,2.40
2018-03-29T08:18:28.943Z,2.50
2018-03-29T08:20:56.890Z,2.60
2018-03-29T08:23:24.745Z,4.50
2018-03-29T08:25:52.641Z,3.43
2018-03-29T08:28:20.512Z,3.90
2018-03-29T08:30:48.422Z,2.83
2018-03-29T08:33:17.054Z,2.53
2018-03-29T08:35:44.935Z,2.70
2018-03-29T08:38:12.850Z,3.43
2018-03-29T08:40:41.860Z,3.30
2018-03-29T08:43:09.775Z,3.80
2018-03-29T08:45:41.089Z,2.57
2018-03-29T08:48:08.999Z,3.43
2018-03-29T08:50:36.852Z,2.83
2018-03-29T08:53:04.911Z,3.63
2018-03-29T08:55:32.794Z,9.50
2018-03-29T08:58:00.713Z,7.90
2018-03-29T09:00:29.012Z,2.90
2018-03-29T09:02:56.999Z,3.87
2018-03-29T09:05:24.882Z,2.87
2018-03-29T09:07:52.837Z,4.40
2018-03-29T09:10:20.672Z,5.10
2018-03-29T09:12:48.878Z,4.77
2018-03-29T09:15:16.789Z,3.57
2018-03-29T09:17:44.699Z,4.67
2018-03-29T09:20:13.182Z,3.13
2018-03-29T09:22:41.593Z,3.73
2018-03-29T09:25:09.752Z,9.27
2018-03-29T09:27:37.741Z,6.37
2018-03-29T09:30:05.611Z,5.13
2018-03-29T09:32:33.788Z,4.20
2018-03-29T09:35:02.099Z,4.47
2018-03-29T09:37:30.016Z,4.30
2018-03-29T09:39:57.953Z,4.70
2018-03-29T09:42:25.819Z,5.07
2018-03-29T09:44:53.777Z,5.77
2018-03-29T09:47:21.776Z,5.87
2018-03-29T09:49:49.922Z,6.03
2018-03-29T09:52:17.944Z,5.77
2018-03-29T09:54:46.036Z,4.20
2018-03-29T09:57:14.021Z,4.93
2018-03-29T09:59:42.007Z,5.07
2018-03-29T10:02:16.244Z,4.70
2018-03-29T10:04:44.149Z,4.77
2018-03-29T10:07:18.334Z,4.13
2018-03-29T10:09:46.273Z,5.00
2018-03-29T10:12:14.409Z,5.00
2018-03-29T10:14:42.330Z,5.00
2018-03-29T10:17:10.285Z,4.00
2018-03-29T10:19:38.174Z,4.53
2018-03-29T10:22:06.025Z,4.07
2018-03-29T10:24:33.905Z,4.30
2018-03-29T10:27:01.789Z,3.90
2018-03-29T10:29:30.266Z,2.90
2018-03-29T10:31:58.278Z,3.33
2018-03-29T10:34:26.127Z,3.40
2018-03-29T10:36:54.072Z,3.43
2018-03-29T10:39:21.939Z,2.87
2018-03-29T10:41:49.926Z,2.87
2018-03-29T10:44:17.799Z,3.20
2018-03-29T10:46:45.847Z,3.53
2018-03-29T10:49:13.935Z,3.17
2018-03-29T10:51:41.893Z,4.30
2018-03-29T10:54:09.938Z,3.10
2018-03-29T10:56:37.871Z,3.97
2018-03-29T10:59:05.785Z,4.03
2018-03-29T11:01:33.660Z,4.33
2018-03-29T11:04:01.649Z,3.70
2018-03-29T11:06:29.521Z,3.37
2018-03-29T11:08:57.425Z,2.80
2018-03-29T11:11:25.379Z,2.70
2018-03-29T11:13:53.687Z,2.80
2018-03-29T11:16:21.627Z,2.60
2018-03-29T11:18:50.493Z,2.97
2018-03-29T11:21:18.470Z,2.93
2018-03-29T11:23:46.501Z,3.00
2018-03-29T11:26:14.415Z,2.40
2018-03-29T11:28:42.367Z,3.10
2018-03-29T11:31:10.488Z,2.60
2018-03-29T11:33:38.499Z,3.20
2018-03-29T11:36:06.423Z,2.67
2018-03-29T11:38:34.335Z,3.30
2018-03-29T11:41:02.269Z,2.97
2018-03-29T11:43:30.182Z,3.93
2018-03-29T11:45:58.051Z,3.30
2018-03-29T11:48:25.955Z,6.17
2018-03-29T11:50:53.835Z,8.03
2018-03-29T11:53:21.702Z,5.73
2018-03-29T11:55:49.604Z,4.20
2018-03-29T11:58:17.483Z,4.97
2018-03-29T12:00:45.395Z,4.90
2018-03-29T12:03:13.285Z,4.00
2018-03-29T12:05:41.138Z,4.60
2018-03-29T12:08:09.050Z,3.80
2018-03-29T12:10:36.978Z,4.63
2018-03-29T12:13:04.837Z,5.20
2018-03-29T12:15:32.718Z,4.10
2018-03-29T12:18:00.729Z,4.97
2018-03-29T12:20:28.608Z,14.30
2018-03-29T12:22:56.463Z,5.93
2018-03-29T12:25:24.432Z,8.37
2018-03-29T12:27:52.302Z,7.13
2018-03-29T12:30:20.242Z,6.90
2018-03-29T12:32:48.163Z,5.10
2018-03-29T12:35:16.137Z,7.00
2018-03-29T12:37:44.051Z,7.27
2018-03-29T12:40:11.937Z,9.23
2018-03-29T12:42:39.845Z,6.80
2018-03-29T12:45:07.749Z,6.73
2018-03-29T12:47:35.663Z,5.10
2018-03-29T12:50:03.643Z,6.07
2018-03-29T12:52:31.544Z,4.57
2018-03-29T12:55:05.500Z,4.80
2018-03-29T12:57:39.463Z,5.97
2018-03-29T13:00:07.472Z,6.80
2018-03-29T13:02:35.387Z,5.07
2018-03-29T13:05:04.423Z,6.10
2018-03-29T13:07:32.358Z,5.77
2018-03-29T13:10:01.308Z,5.37
2018-03-29T13:12:29.243Z,6.00
2018-03-29T13:14:57.135Z,5.03
2018-03-29T13:17:26.148Z,5.53
2018-03-29T13:19:54.672Z,6.07
2018-03-29T13:22:23.156Z,5.90
2018-03-29T13:24:51.258Z,6.20
2018-03-29T13:27:19.320Z,6.17
2018-03-29T13:29:47.301Z,6.80
2018-03-29T13:32:15.660Z,7.10
2018-03-29T13:34:44.054Z,7.80
2018-03-29T13:37:12.465Z,7.03
2018-03-29T13:39:41.050Z,7.20
2018-03-29T13:42:10.099Z,7.47
2018-03-29T13:44:38.620Z,7.93
2018-03-29T13:47:06.576Z,9.77
2018-03-29T13:49:35.942Z,9.10
2018-03-29T13:52:03.841Z,8.60
2018-03-29T13:54:32.090Z,8.03
2018-03-29T13:57:00.091Z,7.87
2018-03-29T13:59:29.146Z,8.87
2018-03-29T14:01:57.138Z,9.47
2018-03-29T14:04:25.344Z,9.10
2018-03-29T14:06:53.214Z,7.80
2018-03-29T14:09:21.125Z,8.70
2018-03-29T14:11:49.211Z,10.07
2018-03-29T14:14:19.349Z,9.53
2018-03-29T14:16:47.267Z,9.67
2018-03-29T14:19:16.338Z,8.80
2018-03-29T14:21:44.371Z,11.40
2018-03-29T14:24:12.342Z,9.23
2018-03-29T14:26:40.406Z,12.60
2018-03-29T14:29:08.417Z,12.50
2018-03-29T14:31:36.435Z,12.10
2018-03-29T14:34:06.154Z,12.07
2018-03-29T14:36:34.080Z,10.90
2018-03-29T14:39:02.020Z,11.20
2018-03-29T14:41:29.950Z,10.90
2018-03-29T14:43:57.851Z,12.30
2018-03-29T14:46:25.770Z,11.67
2018-03-29T14:48:53.641Z,12.17
2018-03-29T14:51:21.606Z,11.07
2018-03-29T14:53:49.520Z,11.50
2018-03-29T14:56:17.400Z,10.53
2018-03-29T14:58:45.296Z,10.37
2018-03-29T15:01:14.611Z,11.67
2018-03-29T15:03:44.938Z,10.07
2018-03-29T15:06:14.556Z,10.50
2018-03-29T15:08:42.540Z,10.00
2018-03-29T15:11:10.470Z,10.30
2018-03-29T15:13:38.584Z,10.83
2018-03-29T15:16:06.398Z,11.07
2018-03-29T15:18:34.321Z,12.03
2018-03-29T15:21:02.272Z,12.23
2018-03-29T15:23:30.244Z,10.87
2018-03-29T15:25:58.166Z,11.60
2018-03-29T15:28:26.101Z,10.67
2018-03-29T15:30:53.972Z,12.13
2018-03-29T15:33:24.553Z,11.67
2018-03-29T15:35:54.582Z,12.30
2018-03-29T15:38:22.618Z,12.20
2018-03-29T15:40:50.477Z,13.00
2018-03-29T15:43:18.435Z,12.80
2018-03-29T15:45:46.339Z,12.33
2018-03-29T15:48:14.221Z,13.90
2018-03-29T15:50:42.180Z,13.60
2018-03-29T15:53:10.193Z,14.13
2018-03-29T15:55:38.139Z,13.27
2018-03-29T15:58:06.125Z,13.00
2018-03-29T16:00:34.153Z,11.47
2018-03-29T16:03:02.109Z,13.70
2018-03-29T16:05:30.173Z,12.67
2018-03-29T16:07:58.129Z,13.20
2018-03-29T16:10:25.987Z,13.80
2018-03-29T16:12:53.879Z,14.13
2018-03-29T16:15:21.811Z,14.80
2018-03-29T16:17:49.689Z,14.10
2018-03-29T16:20:18.443Z,14.20
2018-03-29T16:22:46.323Z,14.40
2018-03-29T16:25:14.208Z,13.87
2018-03-29T16:27:42.181Z,14.30
2018-03-29T16:30:10.080Z,13.90
2018-03-29T16:32:38.005Z,16.17
2018-03-29T16:35:05.979Z,14.77
2018-03-29T16:37:33.865Z,13.80
2018-03-29T16:40:01.779Z,15.07
2018-03-29T16:42:29.687Z,16.37
2018-03-29T16:44:57.548Z,15.00
2018-03-29T16:47:25.446Z,12.90
2018-03-29T16:49:54.072Z,13.17
2018-03-29T16:52:21.934Z,14.50
2018-03-29T16:54:49.911Z,15.43
2018-03-29T16:57:17.788Z,15.27
2018-03-29T16:59:45.681Z,23.00
2018-03-29T17:02:14.481Z,18.63
2018-03-29T17:04:42.345Z,37.23
2018-03-29T17:07:10.226Z,20.37
2018-03-29T17:09:38.175Z,58.40
2018-03-29T17:12:06.085Z,85.73
2018-03-29T17:14:33.972Z,34.57
2018-03-29T17:17:01.983Z,33.53
2018-03-29T17:19:29.868Z,50.70
2018-03-29T17:21:57.766Z,31.43
2018-03-29T17:24:25.665Z,25.00
2018-03-29T17:26:53.542Z,30.57
2018-03-29T17:29:21.486Z,32.10
2018-03-29T17:31:49.482Z,29.70
2018-03-29T17:34:17.401Z,18.07
2018-03-29T17:36:45.247Z,16.10
2018-03-29T17:39:13.132Z,14.10
2018-03-29T17:41:41.091Z,15.70
2018-03-29T17:44:08.978Z,12.73
2018-03-29T17:46:36.869Z,11.10
2018-03-29T17:49:04.801Z,10.20
2018-03-29T17:51:32.685Z,10.30
2018-03-29T17:54:00.564Z,11.03
2018-03-29T17:56:28.440Z,10.33
2018-03-29T17:58:56.305Z,10.67
2018-03-29T18:01:24.179Z,15.17
2018-03-29T18:03:52.127Z,13.03
2018-03-29T18:06:20.148Z,16.60
2018-03-29T18:08:47.989Z,12.33
2018-03-29T18:11:15.923Z,16.03
2018-03-29T18:13:43.751Z,13.23
2018-03-29T18:16:11.623Z,19.63
2018-03-29T18:18:39.532Z,15.17
2018-03-29T18:21:07.412Z,14.60
2018-03-29T18:23:35.288Z,13.07
2018-03-29T18:26:03.343Z,14.43
2018-03-29T18:28:31.234Z,13.07
2018-03-29T18:30:59.099Z,18.23
2018-03-29T18:33:26.963Z,14.07
2018-03-29T18:35:54.863Z,12.03
2018-03-29T18:38:22.759Z,9.93
2018-03-29T18:40:50.659Z,11.20
2018-03-29T18:43:18.525Z,11.10
2018-03-29T18:45:46.383Z,9.40
2018-03-29T18:48:14.440Z,16.47
2018-03-29T18:50:42.407Z,12.03
2018-03-29T18:53:10.300Z,11.90
2018-03-29T18:55:38.175Z,11.73
2018-03-29T18:58:06.148Z,10.70
2018-03-29T19:00:41.004Z,8.37
2018-03-29T19:03:09.182Z,11.63
2018-03-29T19:05:37.082Z,11.67
2018-03-29T19:08:04.988Z,9.03
2018-03-29T19:10:32.910Z,7.90
2018-03-29T19:13:00.844Z,8.50
2018-03-29T19:15:28.728Z,8.33
2018-03-29T19:17:57.475Z,11.90
2018-03-29T19:20:25.377Z,11.93
2018-03-29T19:22:53.373Z,14.17
2018-03-29T19:25:21.251Z,11.20
2018-03-29T19:27:49.131Z,8.03
2018-03-29T19:30:17.031Z,11.73
2018-03-29T19:32:44.898Z,14.73
2018-03-29T19:35:12.779Z,12.17
2018-03-29T19:37:40.794Z,9.33
2018-03-29T19:40:08.640Z,8.63
2018-03-29T19:42:36.545Z,10.93
2018-03-29T19:45:04.457Z,13.10
2018-03-29T19:47:32.348Z,10.00
2018-03-29T19:50:00.192Z,12.27
2018-03-29T19:52:28.084Z,10.90
2018-03-29T19:54:55.997Z,11.73
2018-03-29T19:57:23.871Z,13.40
2018-03-29T19:59:51.796Z,10.40
2018-03-29T20:02:19.810Z,9.00
2018-03-29T20:04:47.669Z,16.23
2018-03-29T20:07:15.575Z,11.30
2018-03-29T20:09:43.436Z,15.00
2018-03-29T20:12:11.327Z,11.50
2018-03-29T20:14:39.217Z,8.37
2018-03-29T20:17:07.186Z,9.40
2018-03-29T20:19:35.086Z,10.40
2018-03-29T20:22:02.996Z,12.33
2018-03-29T20:24:30.941Z,14.27
2018-03-29T20:26:58.843Z,14.53
2018-03-29T20:29:26.719Z,14.93
2018-03-29T20:31:54.593Z,10.07
2018-03-29T20:34:22.874Z,9.77
2018-03-29T20:36:50.801Z,11.47
2018-03-29T20:39:19.796Z,11.93
2018-03-29T20:41:48.885Z,13.83
2018-03-29T20:44:16.751Z,16.77
2018-03-29T20:46:44.784Z,16.40
2018-03-29T20:49:12.672Z,18.00
2018-03-29T20:51:40.667Z,13.90
2018-03-29T20:54:08.576Z,19.00
2018-03-29T20:56:36.589Z,17.20
2018-03-29T20:59:04.482Z,21.67
2018-03-29T21:01:32.362Z,17.63
2018-03-29T21:04:00.247Z,18.00
2018-03-29T21:06:28.141Z,31.13
2018-03-29T21:08:56.019Z,40.47
2018-03-29T21:11:23.954Z,33.17
2018-03-29T21:13:51.829Z,53.23
2018-03-29T21:16:19.731Z,15.40
2018-03-29T21:18:47.579Z,38.23
2018-03-29T21:21:15.547Z,45.83
2018-03-29T21:23:43.424Z,33.27
2018-03-29T21:26:11.357Z,41.23
2018-03-29T21:28:39.309Z,49.63
2018-03-29T21:31:07.186Z,26.77
2018-03-29T21:33:35.067Z,15.37
2018-03-29T21:36:04.108Z,67.23
2018-03-29T21:38:32.016Z,44.17
2018-03-29T21:40:59.900Z,50.03
2018-03-29T21:43:27.760Z,60.00
2018-03-29T21:45:55.613Z,40.90
2018-03-29T21:48:23.482Z,34.80
2018-03-29T21:50:51.415Z,39.87
2018-03-29T21:53:19.282Z,19.83
2018-03-29T21:55:47.134Z,32.07
2018-03-29T21:58:15.022Z,26.23
2018-03-29T22:00:42.933Z,36.30
2018-03-29T22:03:10.834Z,22.47
2018-03-29T22:05:38.741Z,24.30
2018-03-29T22:08:07.766Z,17.73
2018-03-29T22:10:35.640Z,13.67
2018-03-29T22:13:03.533Z,16.03
2018-03-29T22:15:31.446Z,12.63
2018-03-29T22:17:59.383Z,13.20
2018-03-29T22:20:27.349Z,13.70
2018-03-29T22:22:55.219Z,13.27
2018-03-29T22:25:25.141Z,12.97
2018-03-29T22:27:53.888Z,12.30
2018-03-29T22:30:21.759Z,13.50
2018-03-29T22:32:49.638Z,13.00
2018-03-29T22:35:17.533Z,12.10
2018-03-29T22:37:45.388Z,10.53
2018-03-29T22:40:13.261Z,12.50
2018-03-29T22:42:41.152Z,11.67
2018-03-29T22:45:09.022Z,11.97
2018-03-29T22:47:36.933Z,13.97
2018-03-29T22:50:04.807Z,19.30
2018-03-29T22:52:32.748Z,23.07
2018-03-29T22:55:00.632Z,22.33
2018-03-29T22:57:28.496Z,19.03
2018-03-29T22:59:56.587Z,24.60
2018-03-29T23:02:26.622Z,12.30
2018-03-29T23:04:55.260Z,16.43
2018-03-29T23:07:23.148Z,11.50
2018-03-29T23:09:51.027Z,12.90
2018-03-29T23:12:19.199Z,14.73
2018-03-29T23:14:47.085Z,14.40
2018-03-29T23:17:14.995Z,28.33
2018-03-29T23:19:42.843Z,41.40
2018-03-29T23:22:10.872Z,25.77
2018-03-29T23:24:38.843Z,20.63
2018-03-29T23:27:07.254Z,13.53
2018-03-29T23:29:35.233Z,18.60
2018-03-29T23:32:03.113Z,16.50
2018-03-29T23:34:31.122Z,18.20
2018-03-29T23:36:58.974Z,11.77
2018-03-29T23:39:26.972Z,14.80
2018-03-29T23:41:54.906Z,14.80
2018-03-29T23:44:22.835Z,15.60
2018-03-29T23:46:50.718Z,16.27
2018-03-29T23:49:18.657Z,12.20
2018-03-29T23:51:46.559Z,13.13
2018-03-29T23:54:14.454Z,15.10
2018-03-29T23:56:42.485Z,12.80
2018-03-29T23:59:10.329Z,18.40
